Map

Track Data

SID SEASON NUMBER BASIN SUBBASIN NAME ISO_TIME NATURE LAT LON WMO_WIND WMO_PRES WMO_AGENCY TRACK_TYPE DIST2LAND LANDFALL IFLAG USA_AGENCY USA_ATCF_ID USA_LAT USA_LON USA_RECORD USA_STATUS USA_WIND USA_PRES USA_SSHS USA_R34_NE USA_R34_SE USA_R34_SW USA_R34_NW USA_R50_NE USA_R50_SE USA_R50_SW USA_R50_NW USA_R64_NE USA_R64_SE USA_R64_SW USA_R64_NW USA_POCI USA_ROCI USA_RMW USA_EYE TOKYO_LAT TOKYO_LON TOKYO_GRADE TOKYO_WIND TOKYO_PRES TOKYO_R50_DIR TOKYO_R50_LONG TOKYO_R50_SHORT TOKYO_R30_DIR TOKYO_R30_LONG TOKYO_R30_SHORT TOKYO_LAND CMA_LAT CMA_LON CMA_CAT CMA_WIND CMA_PRES HKO_LAT HKO_LON HKO_CAT HKO_WIND HKO_PRES NEWDELHI_LAT NEWDELHI_LON NEWDELHI_GRADE NEWDELHI_WIND NEWDELHI_PRES NEWDELHI_CI NEWDELHI_DP NEWDELHI_POCI REUNION_LAT REUNION_LON REUNION_TYPE REUNION_WIND REUNION_PRES REUNION_TNUM REUNION_CI REUNION_RMW REUNION_R34_NE REUNION_R34_SE REUNION_R34_SW REUNION_R34_NW REUNION_R50_NE REUNION_R50_SE REUNION_R50_SW REUNION_R50_NW REUNION_R64_NE REUNION_R64_SE REUNION_R64_SW REUNION_R64_NW BOM_LAT BOM_LON BOM_TYPE BOM_WIND BOM_PRES BOM_TNUM BOM_CI BOM_RMW BOM_R34_NE BOM_R34_SE BOM_R34_SW BOM_R34_NW BOM_R50_NE BOM_R50_SE BOM_R50_SW BOM_R50_NW BOM_R64_NE BOM_R64_SE BOM_R64_SW BOM_R64_NW BOM_ROCI BOM_POCI BOM_EYE BOM_POS_METHOD BOM_PRES_METHOD NADI_LAT NADI_LON NADI_CAT NADI_WIND NADI_PRES WELLINGTON_LAT WELLINGTON_LON WELLINGTON_WIND WELLINGTON_PRES DS824_LAT DS824_LON DS824_STAGE DS824_WIND DS824_PRES TD9636_LAT TD9636_LON TD9636_STAGE TD9636_WIND TD9636_PRES TD9635_LAT TD9635_LON TD9635_WIND TD9635_PRES TD9635_ROCI NEUMANN_LAT NEUMANN_LON NEUMANN_CLASS NEUMANN_WIND NEUMANN_PRES MLC_LAT MLC_LON MLC_CLASS MLC_WIND MLC_PRES USA_GUST BOM_GUST BOM_GUST_PER REUNION_GUST REUNION_GUST_PER USA_SEAHGT USA_SEARAD_NE USA_SEARAD_SE USA_SEARAD_SW USA_SEARAD_NW STORM_SPEED STORM_DIR
1970183N08273 1970 58 EP MM FRANCESCA 1970-07-01 12:00:00 TS 8.30000 -86.9000 25 hurdat_epa main 222 220 O________OO___ hurdat_epa EP051970 8.30000 -86.9000 TD 25 -1 8.30000 -86.9000 TC 25 8.30000 -86.9000 1 9 296
1970183N08273 1970 58 EP MM FRANCESCA 1970-07-01 15:00:00 TS 8.49823 -87.3072 main 235 235 P________PP___ EP051970 8.50510 -87.3099 TD 25 -1 8.50510 -87.3099 TC 25 8.47074 -87.2966 1 9 296
1970183N08273 1970 58 EP MM FRANCESCA 1970-07-01 18:00:00 TS 8.69060 -87.6969 25 hurdat_epa main 257 257 O________OP___ hurdat_epa EP051970 8.70000 -87.7000 TD 25 -1 8.70000 -87.7000 TC 25 8.65302 -87.6848 1 8 297
1970183N08273 1970 58 EP MM FRANCESCA 1970-07-01 21:00:00 TS 8.87971 -88.0572 main 286 286 P________PP___ EP051970 8.88495 -88.0576 TD 25 -1 8.88495 -88.0576 TC 25 8.85877 -88.0555 1 8 301
1970183N08273 1970 58 EP MM FRANCESCA 1970-07-02 00:00:00 TS 9.10000 -88.4000 25 hurdat_epa main 309 309 O________OO___ hurdat_epa EP051970 9.10000 -88.4000 TD 25 -1 9.10000 -88.4000 TC 25 9.10000 -88.4000 1 9 306
1970183N08273 1970 58 EP MM FRANCESCA 1970-07-02 03:00:00 TS 9.38461 -88.7490 main 326 326 P________PP___ EP051970 9.38499 -88.7575 TD 25 -1 9.38499 -88.7575 TC 25 9.38310 -88.7151 1 9 312
1970183N08273 1970 58 EP MM FRANCESCA 1970-07-02 06:00:00 TS 9.69840 -89.0840 25 hurdat_epa main 359 359 O________OP___ hurdat_epa EP051970 9.70000 -89.1000 TD 25 -1 9.70000 -89.1000 TC 25 9.69200 -89.0202 1 9 315
1970183N08273 1970 58 EP MM FRANCESCA 1970-07-02 09:00:00 TS 10.0009 -89.3761 main 364 339 P________PP___ EP051970 9.99988 -89.3851 TD 25 -1 9.99988 -89.3851 TC 25 10.0049 -89.3402 1 9 315
1970183N08273 1970 58 EP MM FRANCESCA 1970-07-02 12:00:00 TS 10.3000 -89.7000 25 hurdat_epa main 339 319 O________OO___ hurdat_epa EP051970 10.3000 -89.7000 TD 25 -1 10.3000 -89.7000 TC 25 10.3000 -89.7000 2 10 310
1970183N08273 1970 58 EP MM FRANCESCA 1970-07-02 15:00:00 TS 10.6170 -90.1174 main 323 300 P________PP___ EP051970 10.6225 -90.1199 TD 35 0 10.6225 -90.1199 TC 35 10.5951 -90.1072 2 11 304
1970183N08273 1970 58 EP MM FRANCESCA 1970-07-02 18:00:00 TS 10.8924 -90.5919 45 hurdat_epa main 303 294 O________OP___ hurdat_epa EP051970 10.9000 -90.6000 TS 45 0 10.9000 -90.6000 TC 45 10.8621 -90.5594 2 11 297
1970183N08273 1970 58 EP MM FRANCESCA 1970-07-02 21:00:00 TS 11.0965 -91.0674 main 303 302 P________PP___ EP051970 11.1023 -91.0700 TS 47 0 11.1023 -91.0700 TC 47 11.0731 -91.0570 2 10 287
1970183N08273 1970 58 EP MM FRANCESCA 1970-07-03 00:00:00 TS 11.2000 -91.6000 50 hurdat_epa main 304 304 O________OO___ hurdat_epa EP051970 11.2000 -91.6000 TS 50 0 11.2000 -91.6000 TC 50 11.2000 -91.6000 2 11 275
1970183N08273 1970 58 EP MM FRANCESCA 1970-07-03 03:00:00 TS 11.1907 -92.2246 main 317 317 P________PP___ EP051970 11.1875 -92.2351 TS 50 0 11.1875 -92.2351 TC 50 11.2031 -92.1827 2 13 266
1970183N08273 1970 58 EP MM FRANCESCA 1970-07-03 06:00:00 TS 11.1050 -92.8812 50 hurdat_epa main 358 358 O________OP___ hurdat_epa EP051970 11.1000 -92.9000 TS 50 0 11.1000 -92.9000 TC 50 11.1250 -92.8062 2 13 261
1970183N08273 1970 58 EP MM FRANCESCA 1970-07-03 09:00:00 TS 11.0017 -93.4903 main 403 403 P________PP___ EP051970 10.9998 -93.5000 TS 50 0 10.9998 -93.5000 TC 50 11.0093 -93.4514 2 12 260
1970183N08273 1970 58 EP MM FRANCESCA 1970-07-03 12:00:00 TS 10.9000 -94.1000 50 hurdat_epa main 446 446 O________OO___ hurdat_epa EP051970 10.9000 -94.1000 TS 50 0 10.9000 -94.1000 TC 50 10.9000 -94.1000 4 12 262
1970183N08273 1970 58 EP MM FRANCESCA 1970-07-03 15:00:00 TS 10.8326 -94.7378 main 494 494 P________PP___ EP051970 10.8350 -94.7500 TS 67 1 10.8350 -94.7500 TC 67 10.8231 -94.6890 4 13 265
1970183N08273 1970 58 EP MM FRANCESCA 1970-07-03 18:00:00 TS 10.7932 -95.3767 85 hurdat_epa main 540 540 O________OP___ hurdat_epa EP051970 10.8000 -95.4000 HU 85 2 10.8000 -95.4000 TC 85 10.7661 -95.2835 4 12 267
1970183N08273 1970 58 EP MM FRANCESCA 1970-07-03 21:00:00 TS 10.7599 -95.9584 main 541 537 P________PP___ EP051970 10.7621 -95.9702 HU 85 2 10.7621 -95.9702 TC 85 10.7511 -95.9112 4 12 270
1970183N08273 1970 58 EP MM FRANCESCA 1970-07-04 00:00:00 TS 10.8000 -96.6000 85 hurdat_epa main 537 522 O________OO___ hurdat_epa EP051970 10.8000 -96.6000 HU 85 2 10.8000 -96.6000 TC 85 10.8000 -96.6000 4 14 278
1970183N08273 1970 58 EP MM FRANCESCA 1970-07-04 03:00:00 TS 10.9657 -97.4133 main 522 518 P________PP___ EP051970 10.9700 -97.4124 HU 85 2 10.9700 -97.4124 TC 85 10.9482 -97.4168 4 17 283
1970183N08273 1970 58 EP MM FRANCESCA 1970-07-04 06:00:00 TS 11.1912 -98.2983 85 hurdat_epa main 525 523 O________OP___ hurdat_epa EP051970 11.2000 -98.3000 HU 85 2 11.2000 -98.3000 TC 85 11.1560 -98.2912 4 18 284
1970183N08273 1970 58 EP MM FRANCESCA 1970-07-04 09:00:00 TS 11.4031 -99.1780 main 536 532 P________PP___ EP051970 11.4075 -99.1800 HU 85 2 11.4075 -99.1800 TC 85 11.3857 -99.1701 4 17 284
1970183N08273 1970 58 EP MM FRANCESCA 1970-07-04 12:00:00 TS 11.6000 -100.000 85 hurdat_epa main 546 543 O________OO___ hurdat_epa EP051970 11.6000 -100.000 HU 85 2 11.6000 -100.000 TC 85 11.6000 -100.000 4 15 284
1970183N08273 1970 58 EP MM FRANCESCA 1970-07-04 15:00:00 TS 11.7608 -100.686 main 552 552 P________PP___ EP051970 11.7646 -100.680 HU 77 1 11.7646 -100.680 TC 77 11.7454 -100.708 4 13 283
1970183N08273 1970 58 EP MM FRANCESCA 1970-07-04 18:00:00 TS 11.8942 -101.312 70 991 hurdat_epa main 564 564 O________OP___ hurdat_epa EP051970 11.9000 -101.300 HU 70 991 1 11.9000 -101.300 TC 70 991 11.8710 -101.361 4 13 281
1970183N08273 1970 58 EP MM FRANCESCA 1970-07-04 21:00:00 TS 12.0031 -101.957 main 581 581 P________PP___ EP051970 12.0073 -101.950 HU 70 1 12.0073 -101.950 TC 70 11.9862 -101.983 4 13 279
1970183N08273 1970 58 EP MM FRANCESCA 1970-07-05 00:00:00 TS 12.1000 -102.600 70 hurdat_epa main 602 602 O________OO___ hurdat_epa EP051970 12.1000 -102.600 HU 70 1 12.1000 -102.600 TC 70 12.1000 -102.600 4 13 279
1970183N08273 1970 58 EP MM FRANCESCA 1970-07-05 03:00:00 TS 12.1963 -103.246 main 613 613 P________PP___ EP051970 12.1923 -103.250 HU 70 1 12.1923 -103.250 TC 70 12.2120 -103.230 4 13 279
1970183N08273 1970 58 EP MM FRANCESCA 1970-07-05 06:00:00 TS 12.3053 -103.893 70 hurdat_epa main 635 635 O________OP___ hurdat_epa EP051970 12.3000 -103.900 HU 70 1 12.3000 -103.900 TC 70 12.3263 -103.863 4 13 281
1970183N08273 1970 58 EP MM FRANCESCA 1970-07-05 09:00:00 TS 12.4382 -104.525 main 659 651 P________PP___ EP051970 12.4347 -104.528 HU 70 1 12.4347 -104.528 TC 70 12.4525 -104.515 4 13 283
1970183N08273 1970 58 EP MM FRANCESCA 1970-07-05 12:00:00 TS 12.6000 -105.200 70 hurdat_epa main 662 659 O________OO___ hurdat_epa EP051970 12.6000 -105.200 HU 70 1 12.6000 -105.200 TC 70 12.6000 -105.200 2 15 284
1970183N08273 1970 58 EP MM FRANCESCA 1970-07-05 15:00:00 TS 12.7913 -105.976 main 671 670 P________PP___ EP051970 12.7925 -105.985 HU 67 1 12.7925 -105.985 TC 67 12.7864 -105.939 2 16 284
1970183N08273 1970 58 EP MM FRANCESCA 1970-07-05 18:00:00 TS 12.9984 -106.782 65 hurdat_epa main 690 690 O________OP___ hurdat_epa EP051970 13.0000 -106.800 HU 65 1 13.0000 -106.800 TC 65 12.9922 -106.712 2 16 285
1970183N08273 1970 58 EP MM FRANCESCA 1970-07-05 21:00:00 TS 13.2062 -107.547 main 713 713 P________PP___ EP051970 13.2072 -107.558 HU 60 0 13.2072 -107.558 TC 60 13.2019 -107.505 2 15 285
1970183N08273 1970 58 EP MM FRANCESCA 1970-07-06 00:00:00 TS 13.4000 -108.300 55 hurdat_epa main 748 748 O________OO___ hurdat_epa EP051970 13.4000 -108.300 TS 55 0 13.4000 -108.300 TC 55 13.4000 -108.300 2 15 284
1970183N08273 1970 58 EP MM FRANCESCA 1970-07-06 03:00:00 TS 13.5586 -109.055 main 776 776 P________PP___ EP051970 13.5572 -109.043 TS 52 0 13.5572 -109.043 TC 52 13.5642 -109.104 2 15 282
1970183N08273 1970 58 EP MM FRANCESCA 1970-07-06 06:00:00 TS 13.7030 -109.821 50 hurdat_epa main 814 814 O________OP___ hurdat_epa EP051970 13.7000 -109.800 TS 50 0 13.7000 -109.800 TC 50 13.7149 -109.903 2 16 281
1970183N08273 1970 58 EP MM FRANCESCA 1970-07-06 09:00:00 TS 13.8517 -110.633 main 856 856 P________PP___ EP051970 13.8501 -110.623 TS 47 0 13.8501 -110.623 TC 47 13.8581 -110.676 2 16 281
1970183N08273 1970 58 EP MM FRANCESCA 1970-07-06 12:00:00 TS 14.0000 -111.400 45 hurdat_epa main 909 909 O________OO___ hurdat_epa EP051970 14.0000 -111.400 TS 45 0 14.0000 -111.400 TC 45 14.0000 -111.400 2 14 282
1970183N08273 1970 58 EP MM FRANCESCA 1970-07-06 15:00:00 TS 14.1487 -112.039 main 948 948 P________PP___ EP051970 14.1496 -112.030 TS 45 0 14.1496 -112.030 TC 45 14.1452 -112.075 2 12 284
1970183N08273 1970 58 EP MM FRANCESCA 1970-07-06 18:00:00 TS 14.2983 -112.620 45 hurdat_epa main 983 983 O________OP___ hurdat_epa EP051970 14.3000 -112.600 TS 45 0 14.3000 -112.600 TC 45 14.2916 -112.698 2 12 284
1970183N08273 1970 58 EP MM FRANCESCA 1970-07-06 21:00:00 TS 14.4425 -113.232 main 1008 1001 P________PP___ EP051970 14.4425 -113.223 TS 42 0 14.4425 -113.223 TC 42 14.4423 -113.272 2 12 285
1970183N08273 1970 58 EP MM FRANCESCA 1970-07-07 00:00:00 TS 14.6000 -113.800 40 hurdat_epa main 1010 1004 O________OO___ hurdat_epa EP051970 14.6000 -113.800 TS 40 0 14.6000 -113.800 TC 40 14.6000 -113.800 2 11 289
1970183N08273 1970 58 EP MM FRANCESCA 1970-07-07 03:00:00 TS 14.7965 -114.279 main 1012 1007 P________PP___ EP051970 14.7998 -114.273 TS 40 0 14.7998 -114.273 TC 40 14.7835 -114.305 2 10 294
1970183N08273 1970 58 EP MM FRANCESCA 1970-07-07 06:00:00 TS 14.9944 -114.713 40 hurdat_epa main 1012 1012 O________OP___ hurdat_epa EP051970 15.0000 -114.700 TS 40 0 15.0000 -114.700 TC 40 14.9718 -114.767 2 9 293
1970183N08273 1970 58 EP MM FRANCESCA 1970-07-07 09:00:00 TS 15.1618 -115.171 main 1019 1019 P________PP___ EP051970 15.1650 -115.165 TS 37 0 15.1650 -115.165 TC 37 15.1492 -115.196 2 9 290
1970183N08273 1970 58 EP MM FRANCESCA 1970-07-07 12:00:00 TS 15.3000 -115.600 35 hurdat_epa main 1033 1033 O________OO___ hurdat_epa EP051970 15.3000 -115.600 TS 35 0 15.3000 -115.600 TC 35 15.3000 -115.600 2 8 288
1970183N08273 1970 58 EP MM FRANCESCA 1970-07-07 15:00:00 TS 15.4142 -115.965 main 1048 1046 P________PP___ EP051970 15.4148 -115.958 TS 35 0 15.4148 -115.958 TC 35 15.4115 -115.997 2 7 286
1970183N08273 1970 58 EP MM FRANCESCA 1970-07-07 18:00:00 TS 15.4989 -116.315 35 1006 hurdat_epa main 1059 1059 O________OP___ hurdat_epa EP051970 15.5000 -116.300 TS 35 1006 0 15.5000 -116.300 TC 35 1006 15.4945 -116.373 2 7 281
1970183N08273 1970 58 EP MM FRANCESCA 1970-07-07 21:00:00 TS 15.5571 -116.708 main 1077 1077 P________PP___ EP051970 15.5575 -116.700 TS 35 0 15.5575 -116.700 TC 35 15.5553 -116.737 2 8 278
1970183N08273 1970 58 EP MM FRANCESCA 1970-07-08 00:00:00 TS 15.6000 -117.100 35 hurdat_epa main 1105 1105 O________OO___ hurdat_epa EP051970 15.6000 -117.100 TS 35 0 15.6000 -117.100 TC 35 15.6000 -117.100 2 7 278
1970183N08273 1970 58 EP MM FRANCESCA 1970-07-08 03:00:00 TS 15.6554 -117.457 main 1125 1125 P________PP___ EP051970 15.6574 -117.450 TS 32 -1 15.6574 -117.450 TC 32 15.6474 -117.487 2 7 278
1970183N08273 1970 58 EP MM FRANCESCA 1970-07-08 06:00:00 TS 15.6960 -117.815 30 hurdat_epa main 1147 1147 O________OP___ hurdat_epa EP051970 15.7000 -117.800 TD 30 -1 15.7000 -117.800 TC 30 15.6800 -117.873 2 7 274
1970183N08273 1970 58 EP MM FRANCESCA 1970-07-08 09:00:00 TS 15.7055 -118.215 main 1178 1178 P________PP___ EP051970 15.7075 -118.208 TD 30 -1 15.7075 -118.208 TC 30 15.6975 -118.247 2 8 270
1970183N08273 1970 58 EP MM FRANCESCA 1970-07-08 12:00:00 TS 15.7000 -118.600 30 hurdat_epa main 1208 1208 O________OO___ hurdat_epa EP051970 15.7000 -118.600 TD 30 -1 15.7000 -118.600 TC 30 15.7000 -118.600 6 7 270
1970183N08273 1970 58 EP MM FRANCESCA 1970-07-08 15:00:00 TS 15.7029 -118.914 main 1230 1230 P________PP___ EP051970 15.7074 -118.915 TD 27 -1 15.7074 -118.915 TC 27 15.6849 -118.910 6 6 269
1970183N08273 1970 58 EP MM FRANCESCA 1970-07-08 18:00:00 TS 15.6914 -119.200 25 hurdat_epa main 1249 1249 O________OP___ hurdat_epa EP051970 15.7000 -119.200 TD 25 -1 15.7000 -119.200 TC 25 15.6569 -119.200 6 6 264
1970183N08273 1970 58 EP MM FRANCESCA 1970-07-08 21:00:00 TS 15.6450 -119.486 main 1276 1276 P________PP___ EP051970 15.6499 -119.485 TD 25 -1 15.6499 -119.485 TC 25 15.6255 -119.491 6 6 261
1970183N08273 1970 58 EP MM FRANCESCA 1970-07-09 00:00:00 TS 15.6000 -119.800 25 hurdat_epa main 1296 1296 O________OO___ hurdat_epa EP051970 15.6000 -119.800 TD 25 -1 15.6000 -119.800 TC 25 15.6000 -119.800 6 7 266
1970183N08273 1970 58 EP MM FRANCESCA 1970-07-09 03:00:00 TS 15.5959 -120.188 main 1322 1322 P________PP___ EP051970 15.5925 -120.192 TD 25 -1 15.5925 -120.192 TC 25 15.6092 -120.169 6 8 270
1970183N08273 1970 58 EP MM FRANCESCA 1970-07-09 06:00:00 TS 15.6045 -120.591 25 hurdat_epa main 1349 1349 O________OP___ hurdat_epa EP051970 15.6000 -120.600 TD 25 -1 15.6000 -120.600 TC 25 15.6227 -120.557 6 7 271
1970183N08273 1970 58 EP MM FRANCESCA 1970-07-09 09:00:00 TS 15.6109 -120.960 main 1376 1376 P________PP___ EP051970 15.6074 -120.965 TD 25 -1 15.6074 -120.965 TC 25 15.6248 -120.941 6 7 270
1970183N08273 1970 58 EP MM FRANCESCA 1970-07-09 12:00:00 TS 15.6000 -121.300 25 hurdat_epa main 1398 1398 O________OO___ hurdat_epa EP051970 15.6000 -121.300 TD 25 -1 15.6000 -121.300 TC 25 15.6000 -121.300 6 6 266
1970183N08273 1970 58 EP MM FRANCESCA 1970-07-09 15:00:00 TS 15.5654 -121.615 main 1419 1419 P________PP___ EP051970 15.5725 -121.615 TD 25 -1 15.5725 -121.615 TC 25 15.5371 -121.617 6 6 259
1970183N08273 1970 58 EP MM FRANCESCA 1970-07-09 18:00:00 TS 15.4885 -121.900 25 hurdat_epa main 1449 1449 O________OP___ hurdat_epa EP051970 15.5000 -121.900 TD 25 -1 15.5000 -121.900 TC 25 15.4424 -121.898 6 6 248
1970183N08273 1970 58 EP MM FRANCESCA 1970-07-09 21:00:00 TS 15.3594 -122.157 main 1480 1480 P________PP___ EP051970 15.3675 -122.158 TD 25 -1 15.3675 -122.158 TC 25 15.3266 -122.155 6 6 239
1970183N08273 1970 58 EP MM FRANCESCA 1970-07-10 00:00:00 TS 15.2000 -122.400 25 hurdat_epa main 1511 O________OO___ hurdat_epa EP051970 15.2000 -122.400 TD 25 -1 15.2000 -122.400 TC 25 15.2000 -122.400 6 6 236

About IBTrACS Database

This database is a web-friendly format of International Best Track Archive for Climate Stewardship (IBTrACS), a global best track data archive curated by NOAA dating back to 1842.

Updated: 2021-12-03